Terminal Aerodrome Forecast
Issued by NWS

Home | Current Version | Previous Version | Text Only | Print | Product List | Glossary On
Versions: 1 2 3 4 5 6 7 8 9 10 11 12 13 14 15 16
000
FTUS42 TJSJ 110500
TAFJPS
TAF
TJPS 110539Z 1106/1206 06005KT P6SM FEW030
     FM111400 13010G20KT P6SM FEW030 BKN060
     FM112300 08005KT P6SM SCT030=

USA.gov is the U.S. government's official web portal to all federal, state and local government web resources and services.